Airfield :







YOU CAN JOIN US ON...

 
LOGIN :

Register | Disclaimer

   EN    FR    IT 

 









Legend :    VFR   Marginal VFR   IFR   Intensive IFR   Very Intensive IFR
Visi :
Ceiling :
>= 8 km
>= 3000ft
5 to 8 km
1000 to 3000 ft
1500m to 5 km
500 to 1000 ft
800 to 1500m
200 to 500 ft
< 800m
< 200 ft
Symbols :   Thunderstorms  Fog  Heavy snow  Heavy precipitations  Wind > 20 kt






- Airport Elevation : 148 ft


KLWM - Lawrence Municipal

CURRENT METAR :
  • 010454Z AUTO VRB06G18KT 5SM -RA BR SCT013 BKN018 OVC034 17/16 A2955 RMK AO2 SLP006 P0011 T01720161 401721011

EXPIRED METARs :
  • 010439Z AUTO 16011G19KT 6SM -RA BR BKN013 BKN023 OVC029 17/16 A2955 RMK AO2 P0010 T01720161
  • 010432Z AUTO 16007G19KT 2SM -RA BR SCT011 BKN017 OVC023 17/16 A2955 RMK AO2 P0010 T01720161
  • 010425Z AUTO 17013G21KT 1 3/4SM +RA BR BKN013 BKN018 OVC023 17/16 A2955 RMK AO2 P0008 T01720156
  • 010400Z AUTO 15008G15KT 2 1/2SM RA BR SCT013 BKN023 OVC050 17/16 A2954 RMK AO2 VIS 1 1/2V5 P0001 T01670156
  • 010354Z AUTO 15008G15KT 4SM -RA BR SCT010 BKN031 OVC050 17/16 A2955 RMK AO2 RAB00 SLP004 P0008 T01670156
  • 010347Z AUTO 15008G14KT 4SM +RA BR SCT010 BKN026 OVC050 17/16 A2954 RMK AO2 RAB00 P0005 T01670156
  • 010321Z AUTO VRB05KT 10SM -RA BKN013 OVC017 16/15 A2956 RMK AO2 RAB00 P0002 T01610150
  • 010254Z 16010G21KT 10SM FEW011 BKN016 OVC025 16/15 A2956 RMK AO2 RAE49 SLP011 P0003 60030 T01610150 56015

TAF N/A
KZBW FIR / North America



MET'MAP, your aeronautical weather chart ! - Copyright ORBIFLY December 2007 - Disclaimer

ORBIFLY MET'MAP TEAM :

Programming & Development : Alexandra Zaïnal
Concept & original design : Baudouin d'Aumeries
Assistance for programming : Marc-Olivier Méhu
Technical & hardware support : Manuel Goepfert

Contact : metmap@orbifly.com




SOURCES & CREDITS :

   NOAA